AAL800 KSAN-KSJC
Flight info
| Callsign | AAL800 |
|---|---|
| Flight time | 0h 55m |
| Altitude | 36000 |
| Route | PADRZ2 IKAYE TESEA SCTRR TROXX SILCN6 |
| Aircraft | A21N/M-SDE2E3FGHIRWXY/LB1 |
Departure
| Time | 2026-04-25 15:35 |
|---|---|
| Airport | San Diego International Airport (KSAN) |
Arrival
| Time | 2026-04-25 16:30 |
|---|---|
| Airport | Norman Y. Mineta San Jose International Airport (KSJC) |
| Time | Latitude | Longitude | Altitude | Speed | Heading |
|---|---|---|---|---|---|
| 2026-04-25 14:32 | 32.73337 | -117.20184 | 20 ft | 0 kts | 84° |
| 2026-04-25 15:22 | 32.73337 | -117.20185 | 21 ft | 0 kts | 84° |
| 2026-04-25 15:25 | 32.73336 | -117.20207 | 21 ft | 2 kts | 84° |
| 2026-04-25 15:25 | 32.73334 | -117.20224 | 21 ft | 2 kts | 84° |
| 2026-04-25 15:25 | 32.73333 | -117.20235 | 21 ft | 2 kts | 83° |
| 2026-04-25 15:25 | 32.73326 | -117.20251 | 21 ft | 2 kts | 36° |
| 2026-04-25 15:26 | 32.73312 | -117.20257 | 21 ft | 2 kts | 0° |
| 2026-04-25 15:26 | 32.73304 | -117.20256 | 21 ft | 0 kts | 340° |
| 2026-04-25 15:26 | 32.73299 | -117.20254 | 21 ft | 0 kts | 343° |
| 2026-04-25 15:27 | 32.73340 | -117.20270 | 21 ft | 10 kts | 341° |
| 2026-04-25 15:28 | 32.73410 | -117.20274 | 21 ft | 10 kts | 13° |
| 2026-04-25 15:28 | 32.73450 | -117.20261 | 21 ft | 0 kts | 14° |
| 2026-04-25 15:29 | 32.73472 | -117.20254 | 21 ft | 6 kts | 15° |
| 2026-04-25 15:29 | 32.73530 | -117.20228 | 21 ft | 11 kts | 37° |
| 2026-04-25 15:29 | 32.73535 | -117.20121 | 21 ft | 16 kts | 108° |
| 2026-04-25 15:30 | 32.73499 | -117.19980 | 22 ft | 18 kts | 107° |
| 2026-04-25 15:30 | 32.73466 | -117.19837 | 22 ft | 17 kts | 105° |
| 2026-04-25 15:30 | 32.73432 | -117.19699 | 22 ft | 17 kts | 107° |
| 2026-04-25 15:30 | 32.73399 | -117.19563 | 23 ft | 16 kts | 106° |
| 2026-04-25 15:31 | 32.73365 | -117.19430 | 23 ft | 16 kts | 106° |
| 2026-04-25 15:31 | 32.73331 | -117.19287 | 23 ft | 20 kts | 106° |
| 2026-04-25 15:31 | 32.73293 | -117.19128 | 23 ft | 19 kts | 105° |
| 2026-04-25 15:31 | 32.73257 | -117.18973 | 23 ft | 19 kts | 106° |
| 2026-04-25 15:32 | 32.73219 | -117.18820 | 23 ft | 19 kts | 106° |
| 2026-04-25 15:32 | 32.73179 | -117.18661 | 23 ft | 20 kts | 106° |
| 2026-04-25 15:32 | 32.73135 | -117.18479 | 23 ft | 23 kts | 105° |
| 2026-04-25 15:33 | 32.73049 | -117.18129 | 24 ft | 21 kts | 107° |
| 2026-04-25 15:33 | 32.73009 | -117.17962 | 24 ft | 20 kts | 106° |
| 2026-04-25 15:33 | 32.72970 | -117.17802 | 25 ft | 19 kts | 105° |
| 2026-04-25 15:33 | 32.72981 | -117.17683 | 25 ft | 14 kts | 40° |
| 2026-04-25 15:34 | 32.73053 | -117.17722 | 25 ft | 18 kts | 289° |
| 2026-04-25 15:34 | 32.73161 | -117.18173 | 24 ft | 97 kts | 286° |
| 2026-04-25 15:34 | 32.73420 | -117.19236 | 26 ft | 166 kts | 285° |
| 2026-04-25 15:34 | 32.73656 | -117.20164 | 304 ft | 182 kts | 286° |
| 2026-04-25 15:35 | 32.74947 | -117.23234 | 2459 ft | 184 kts | 304° |
| 2026-04-25 15:35 | 32.75713 | -117.24515 | 3136 ft | 201 kts | 305° |
| 2026-04-25 15:35 | 32.76545 | -117.25920 | 3790 ft | 215 kts | 304° |
| 2026-04-25 15:36 | 32.78413 | -117.29153 | 4815 ft | 256 kts | 303° |
| 2026-04-25 15:36 | 32.79419 | -117.30913 | 5614 ft | 263 kts | 303° |
| 2026-04-25 15:36 | 32.80457 | -117.32667 | 6551 ft | 263 kts | 305° |
| 2026-04-25 15:37 | 32.81562 | -117.34374 | 7443 ft | 265 kts | 306° |
| 2026-04-25 15:37 | 32.82702 | -117.36109 | 8284 ft | 267 kts | 305° |
| 2026-04-25 15:37 | 32.83833 | -117.37839 | 9080 ft | 270 kts | 304° |
| 2026-04-25 15:37 | 32.84987 | -117.39616 | 9860 ft | 273 kts | 303° |
| 2026-04-25 15:38 | 32.86146 | -117.41409 | 10563 ft | 278 kts | 303° |
| 2026-04-25 15:38 | 32.87357 | -117.43295 | 10962 ft | 295 kts | 303° |
| 2026-04-25 15:38 | 32.88628 | -117.45281 | 11298 ft | 312 kts | 303° |
| 2026-04-25 15:38 | 32.89967 | -117.47367 | 11750 ft | 325 kts | 303° |
| 2026-04-25 15:39 | 32.91364 | -117.49534 | 12456 ft | 329 kts | 303° |
| 2026-04-25 15:39 | 32.92753 | -117.51686 | 13172 ft | 332 kts | 303° |
| 2026-04-25 15:39 | 32.94162 | -117.53876 | 13870 ft | 335 kts | 302° |
| 2026-04-25 15:39 | 32.95581 | -117.56084 | 14556 ft | 339 kts | 302° |
| 2026-04-25 15:40 | 32.97010 | -117.58315 | 15191 ft | 342 kts | 303° |
| 2026-04-25 15:40 | 32.97489 | -117.59065 | 15399 ft | 344 kts | 302° |
| 2026-04-25 15:40 | 32.99930 | -117.62875 | 16447 ft | 349 kts | 302° |
| 2026-04-25 15:40 | 33.01401 | -117.65181 | 17073 ft | 352 kts | 301° |
| 2026-04-25 15:41 | 33.02891 | -117.67514 | 17658 ft | 356 kts | 302° |
| 2026-04-25 15:41 | 33.04392 | -117.69858 | 18238 ft | 360 kts | 302° |
| 2026-04-25 15:41 | 33.06013 | -117.72157 | 18807 ft | 365 kts | 307° |
| 2026-04-25 15:41 | 33.07797 | -117.74327 | 19385 ft | 370 kts | 311° |
| 2026-04-25 15:42 | 33.09723 | -117.76366 | 19972 ft | 375 kts | 313° |
| 2026-04-25 15:42 | 33.11700 | -117.78379 | 20512 ft | 378 kts | 313° |
| 2026-04-25 15:42 | 33.13726 | -117.80431 | 21049 ft | 381 kts | 313° |
| 2026-04-25 15:42 | 33.15752 | -117.82486 | 21561 ft | 385 kts | 313° |
| 2026-04-25 15:43 | 33.17796 | -117.84564 | 22040 ft | 388 kts | 313° |
| 2026-04-25 15:43 | 33.19832 | -117.86736 | 22536 ft | 389 kts | 310° |
| 2026-04-25 15:43 | 33.21748 | -117.88975 | 23040 ft | 390 kts | 309° |
| 2026-04-25 15:43 | 33.23669 | -117.91258 | 23531 ft | 392 kts | 308° |
| 2026-04-25 15:44 | 33.25622 | -117.93587 | 24010 ft | 395 kts | 308° |
| 2026-04-25 15:44 | 33.27570 | -117.95915 | 24496 ft | 396 kts | 308° |
| 2026-04-25 15:44 | 33.29501 | -117.98221 | 24938 ft | 398 kts | 308° |
| 2026-04-25 15:44 | 33.31479 | -118.00586 | 25375 ft | 401 kts | 308° |
| 2026-04-25 15:45 | 33.33452 | -118.02947 | 25771 ft | 404 kts | 308° |
| 2026-04-25 15:45 | 33.35437 | -118.05322 | 26172 ft | 406 kts | 308° |
| 2026-04-25 15:45 | 33.37427 | -118.07707 | 26585 ft | 407 kts | 308° |
| 2026-04-25 15:45 | 33.38107 | -118.08522 | 26727 ft | 408 kts | 308° |
| 2026-04-25 15:46 | 33.41434 | -118.12511 | 27362 ft | 411 kts | 308° |
| 2026-04-25 15:46 | 33.43458 | -118.14938 | 27711 ft | 413 kts | 308° |
| 2026-04-25 15:46 | 33.45507 | -118.17397 | 28038 ft | 415 kts | 308° |
| 2026-04-25 15:46 | 33.47537 | -118.19835 | 28400 ft | 417 kts | 308° |
| 2026-04-25 15:47 | 33.49579 | -118.22289 | 28751 ft | 418 kts | 308° |
| 2026-04-25 15:47 | 33.51624 | -118.24750 | 29058 ft | 420 kts | 308° |
| 2026-04-25 15:47 | 33.53708 | -118.27261 | 29325 ft | 423 kts | 308° |
| 2026-04-25 15:47 | 33.55770 | -118.29741 | 29646 ft | 424 kts | 308° |
| 2026-04-25 15:48 | 33.57839 | -118.32234 | 29982 ft | 424 kts | 308° |
| 2026-04-25 15:48 | 33.59935 | -118.34761 | 30380 ft | 422 kts | 308° |
| 2026-04-25 15:48 | 33.61990 | -118.37241 | 30775 ft | 421 kts | 308° |
| 2026-04-25 15:48 | 33.64051 | -118.39735 | 31088 ft | 421 kts | 308° |
| 2026-04-25 15:49 | 33.66098 | -118.42203 | 31427 ft | 420 kts | 307° |
| 2026-04-25 15:49 | 33.68148 | -118.44680 | 31753 ft | 418 kts | 307° |
| 2026-04-25 15:49 | 33.70216 | -118.47178 | 32072 ft | 417 kts | 307° |
| 2026-04-25 15:49 | 33.72260 | -118.49658 | 32395 ft | 416 kts | 307° |
| 2026-04-25 15:50 | 33.74268 | -118.52099 | 32713 ft | 415 kts | 307° |
| 2026-04-25 15:50 | 33.76303 | -118.54567 | 32985 ft | 415 kts | 307° |
| 2026-04-25 15:50 | 33.78316 | -118.57009 | 33265 ft | 414 kts | 307° |
| 2026-04-25 15:50 | 33.80349 | -118.59480 | 33523 ft | 413 kts | 307° |
| 2026-04-25 15:51 | 33.82369 | -118.61938 | 33805 ft | 413 kts | 307° |
| 2026-04-25 15:51 | 33.83717 | -118.63580 | 33971 ft | 412 kts | 307° |
| 2026-04-25 15:51 | 33.86388 | -118.66831 | 34327 ft | 411 kts | 306° |
| 2026-04-25 15:51 | 33.88408 | -118.69292 | 34563 ft | 411 kts | 306° |
| 2026-04-25 15:52 | 33.90427 | -118.71756 | 34762 ft | 412 kts | 306° |
| 2026-04-25 15:52 | 33.92433 | -118.74206 | 34960 ft | 413 kts | 306° |
| 2026-04-25 15:52 | 33.94071 | -118.76205 | 35109 ft | 414 kts | 306° |
| 2026-04-25 15:53 | 33.95327 | -118.77741 | 35228 ft | 414 kts | 306° |
| 2026-04-25 15:53 | 33.97170 | -118.79997 | 35406 ft | 414 kts | 306° |
| 2026-04-25 15:53 | 33.99465 | -118.82803 | 35546 ft | 416 kts | 306° |
| 2026-04-25 15:53 | 34.01772 | -118.85631 | 35651 ft | 419 kts | 306° |
| 2026-04-25 15:54 | 34.06482 | -118.91406 | 35829 ft | 424 kts | 306° |
| 2026-04-25 15:54 | 34.11213 | -118.97219 | 35944 ft | 429 kts | 306° |
| 2026-04-25 15:55 | 34.15727 | -119.02743 | 35994 ft | 435 kts | 307° |
| 2026-04-25 15:55 | 34.18039 | -119.05499 | 35745 ft | 437 kts | 308° |
| 2026-04-25 15:55 | 34.20420 | -119.08318 | 36092 ft | 437 kts | 308° |
| 2026-04-25 15:56 | 34.22800 | -119.11144 | 35870 ft | 436 kts | 308° |
| 2026-04-25 15:56 | 34.25152 | -119.13940 | 35968 ft | 437 kts | 307° |
| 2026-04-25 15:56 | 34.29902 | -119.19607 | 36209 ft | 441 kts | 307° |
| 2026-04-25 15:57 | 34.32284 | -119.22453 | 35905 ft | 438 kts | 308° |
| 2026-04-25 15:57 | 34.34600 | -119.25224 | 35960 ft | 439 kts | 307° |
| 2026-04-25 15:57 | 34.39375 | -119.30951 | 35997 ft | 441 kts | 308° |
| 2026-04-25 15:58 | 34.44165 | -119.36699 | 35969 ft | 442 kts | 308° |
| 2026-04-25 15:58 | 34.48929 | -119.42426 | 35978 ft | 441 kts | 308° |
| 2026-04-25 15:59 | 34.53743 | -119.48227 | 35974 ft | 442 kts | 308° |
| 2026-04-25 15:59 | 34.58691 | -119.54198 | 35971 ft | 442 kts | 308° |
| 2026-04-25 16:00 | 34.61984 | -119.58177 | 35932 ft | 442 kts | 308° |
| 2026-04-25 16:00 | 34.68519 | -119.66092 | 36014 ft | 443 kts | 307° |
| 2026-04-25 16:01 | 34.73447 | -119.72072 | 35959 ft | 442 kts | 307° |
| 2026-04-25 16:01 | 34.78379 | -119.78063 | 35954 ft | 442 kts | 307° |
| 2026-04-25 16:02 | 34.83310 | -119.84068 | 35953 ft | 442 kts | 307° |
| 2026-04-25 16:02 | 34.88240 | -119.90083 | 35943 ft | 443 kts | 307° |
| 2026-04-25 16:03 | 34.93160 | -119.96094 | 35918 ft | 444 kts | 307° |
| 2026-04-25 16:03 | 34.98089 | -120.02133 | 35941 ft | 444 kts | 307° |
| 2026-04-25 16:04 | 35.03030 | -120.08192 | 35945 ft | 444 kts | 307° |
| 2026-04-25 16:04 | 35.07970 | -120.14263 | 35955 ft | 444 kts | 307° |
| 2026-04-25 16:05 | 35.12810 | -120.20223 | 35936 ft | 443 kts | 307° |
| 2026-04-25 16:06 | 35.19989 | -120.28172 | 35970 ft | 453 kts | 315° |
| 2026-04-25 16:06 | 35.25288 | -120.33049 | 35969 ft | 455 kts | 316° |
| 2026-04-25 16:07 | 35.30608 | -120.37907 | 35985 ft | 456 kts | 316° |
| 2026-04-25 16:07 | 35.35883 | -120.42738 | 35958 ft | 455 kts | 316° |
| 2026-04-25 16:08 | 35.41238 | -120.47657 | 35980 ft | 457 kts | 316° |
| 2026-04-25 16:08 | 35.46526 | -120.52525 | 35996 ft | 457 kts | 316° |
| 2026-04-25 16:09 | 35.51969 | -120.57516 | 36008 ft | 458 kts | 317° |
| 2026-04-25 16:09 | 35.57736 | -120.62184 | 36002 ft | 461 kts | 320° |
| 2026-04-25 16:10 | 35.63571 | -120.66743 | 36017 ft | 461 kts | 320° |
| 2026-04-25 16:10 | 35.69451 | -120.71349 | 35959 ft | 456 kts | 320° |
| 2026-04-25 16:10 | 35.72465 | -120.73714 | 35551 ft | 450 kts | 320° |
| 2026-04-25 16:11 | 35.75482 | -120.76087 | 34644 ft | 450 kts | 320° |
| 2026-04-25 16:11 | 35.78529 | -120.78497 | 33392 ft | 455 kts | 320° |
| 2026-04-25 16:11 | 35.81659 | -120.80975 | 31907 ft | 461 kts | 321° |
| 2026-04-25 16:11 | 35.84799 | -120.83462 | 30366 ft | 468 kts | 321° |
| 2026-04-25 16:12 | 35.87923 | -120.85932 | 29016 ft | 469 kts | 321° |
| 2026-04-25 16:12 | 35.90960 | -120.88324 | 28314 ft | 456 kts | 322° |
| 2026-04-25 16:12 | 35.93892 | -120.90634 | 27710 ft | 444 kts | 322° |
| 2026-04-25 16:12 | 35.95835 | -120.92171 | 27339 ft | 437 kts | 322° |
| 2026-04-25 16:13 | 35.99671 | -120.95224 | 26665 ft | 429 kts | 321° |
| 2026-04-25 16:13 | 36.02385 | -120.97599 | 26381 ft | 421 kts | 318° |
| 2026-04-25 16:13 | 36.04973 | -121.00031 | 25861 ft | 417 kts | 317° |
| 2026-04-25 16:13 | 36.07494 | -121.02439 | 25358 ft | 412 kts | 317° |
| 2026-04-25 16:14 | 36.10051 | -121.04883 | 24864 ft | 409 kts | 317° |
| 2026-04-25 16:14 | 36.12439 | -121.07162 | 24395 ft | 405 kts | 317° |
| 2026-04-25 16:14 | 36.14736 | -121.09354 | 23935 ft | 403 kts | 317° |
| 2026-04-25 16:14 | 36.17117 | -121.11624 | 23430 ft | 400 kts | 318° |
| 2026-04-25 16:15 | 36.19495 | -121.13894 | 22944 ft | 396 kts | 318° |
| 2026-04-25 16:15 | 36.21937 | -121.16224 | 22473 ft | 392 kts | 318° |
| 2026-04-25 16:15 | 36.24391 | -121.18568 | 21944 ft | 389 kts | 318° |
| 2026-04-25 16:15 | 36.26687 | -121.20765 | 21473 ft | 386 kts | 318° |
| 2026-04-25 16:16 | 36.29093 | -121.23072 | 20997 ft | 383 kts | 319° |
| 2026-04-25 16:16 | 36.31459 | -121.25341 | 20502 ft | 380 kts | 319° |
| 2026-04-25 16:16 | 36.33826 | -121.27609 | 20032 ft | 376 kts | 319° |
| 2026-04-25 16:16 | 36.36132 | -121.29816 | 19887 ft | 366 kts | 319° |
| 2026-04-25 16:17 | 36.38398 | -121.31997 | 19262 ft | 369 kts | 320° |
| 2026-04-25 16:17 | 36.40748 | -121.34263 | 18535 ft | 371 kts | 320° |
| 2026-04-25 16:17 | 36.43047 | -121.36481 | 18032 ft | 368 kts | 320° |
| 2026-04-25 16:17 | 36.45306 | -121.38662 | 17573 ft | 364 kts | 320° |
| 2026-04-25 16:18 | 36.47552 | -121.40833 | 17094 ft | 360 kts | 321° |
| 2026-04-25 16:18 | 36.48301 | -121.41536 | 16926 ft | 358 kts | 323° |
| 2026-04-25 16:18 | 36.52455 | -121.44230 | 15712 ft | 354 kts | 339° |
| 2026-04-25 16:18 | 36.55086 | -121.45359 | 14972 ft | 350 kts | 342° |
| 2026-04-25 16:19 | 36.57713 | -121.46442 | 14292 ft | 345 kts | 342° |
| 2026-04-25 16:19 | 36.60303 | -121.47512 | 13612 ft | 340 kts | 342° |
| 2026-04-25 16:19 | 36.62808 | -121.48553 | 13021 ft | 333 kts | 342° |
| 2026-04-25 16:20 | 36.67746 | -121.50629 | 11964 ft | 328 kts | 341° |
| 2026-04-25 16:20 | 36.70217 | -121.51673 | 11481 ft | 326 kts | 341° |
| 2026-04-25 16:20 | 36.75027 | -121.53713 | 10859 ft | 308 kts | 341° |
| 2026-04-25 16:21 | 36.77322 | -121.54685 | 10565 ft | 296 kts | 341° |
| 2026-04-25 16:21 | 36.79497 | -121.55610 | 10291 ft | 289 kts | 341° |
| 2026-04-25 16:21 | 36.81639 | -121.56522 | 10029 ft | 282 kts | 341° |
| 2026-04-25 16:21 | 36.83762 | -121.57426 | 9652 ft | 281 kts | 341° |
| 2026-04-25 16:22 | 36.85865 | -121.58321 | 9246 ft | 280 kts | 341° |
| 2026-04-25 16:22 | 36.87979 | -121.59219 | 8853 ft | 279 kts | 341° |
| 2026-04-25 16:22 | 36.90040 | -121.60095 | 8494 ft | 277 kts | 341° |
| 2026-04-25 16:22 | 36.92127 | -121.60985 | 8115 ft | 275 kts | 341° |
| 2026-04-25 16:23 | 36.94198 | -121.61865 | 7730 ft | 274 kts | 341° |
| 2026-04-25 16:23 | 36.96240 | -121.62730 | 7358 ft | 272 kts | 341° |
| 2026-04-25 16:23 | 36.98294 | -121.63603 | 6969 ft | 271 kts | 341° |
| 2026-04-25 16:23 | 37.00327 | -121.64466 | 6579 ft | 269 kts | 340° |
| 2026-04-25 16:24 | 37.02326 | -121.65315 | 6216 ft | 267 kts | 340° |
| 2026-04-25 16:24 | 37.04350 | -121.66176 | 5837 ft | 266 kts | 340° |
| 2026-04-25 16:24 | 37.06338 | -121.67021 | 5491 ft | 264 kts | 340° |
| 2026-04-25 16:24 | 37.08289 | -121.67851 | 5147 ft | 262 kts | 340° |
| 2026-04-25 16:25 | 37.10268 | -121.68696 | 4782 ft | 261 kts | 340° |
| 2026-04-25 16:25 | 37.11578 | -121.69254 | 4542 ft | 260 kts | 340° |
| 2026-04-25 16:25 | 37.14061 | -121.70314 | 4147 ft | 254 kts | 339° |
| 2026-04-25 16:25 | 37.15808 | -121.71172 | 4073 ft | 245 kts | 332° |
| 2026-04-25 16:26 | 37.17440 | -121.72435 | 3899 ft | 245 kts | 321° |
| 2026-04-25 16:26 | 37.18931 | -121.73942 | 3817 ft | 238 kts | 318° |
| 2026-04-25 16:26 | 37.20374 | -121.75513 | 3798 ft | 239 kts | 317° |
| 2026-04-25 16:26 | 37.21802 | -121.77094 | 3620 ft | 239 kts | 317° |
| 2026-04-25 16:27 | 37.23215 | -121.78656 | 3265 ft | 238 kts | 317° |
| 2026-04-25 16:27 | 37.24603 | -121.80183 | 2912 ft | 237 kts | 317° |
| 2026-04-25 16:27 | 37.25987 | -121.81705 | 2560 ft | 236 kts | 317° |
| 2026-04-25 16:27 | 37.27326 | -121.83175 | 2219 ft | 234 kts | 317° |
| 2026-04-25 16:28 | 37.28677 | -121.84658 | 1874 ft | 232 kts | 317° |
| 2026-04-25 16:28 | 37.29964 | -121.86070 | 1531 ft | 219 kts | 317° |
| 2026-04-25 16:28 | 37.31145 | -121.87365 | 1246 ft | 211 kts | 317° |
| 2026-04-25 16:28 | 37.32284 | -121.88615 | 1024 ft | 196 kts | 317° |
| 2026-04-25 16:29 | 37.33340 | -121.89774 | 727 ft | 183 kts | 317° |
| 2026-04-25 16:29 | 37.34307 | -121.90835 | 444 ft | 169 kts | 317° |
| 2026-04-25 16:29 | 37.35176 | -121.91788 | 199 ft | 154 kts | 317° |
| 2026-04-25 16:29 | 37.35950 | -121.92639 | 59 ft | 134 kts | 318° |
| 2026-04-25 16:30 | 37.36522 | -121.93271 | 51 ft | 84 kts | 318° |
| 2026-04-25 16:30 | 37.36845 | -121.93581 | 47 ft | 28 kts | 352° |
| 2026-04-25 16:30 | 37.36973 | -121.93492 | 46 ft | 20 kts | 49° |
| 2026-04-25 16:30 | 37.37067 | -121.93354 | 46 ft | 18 kts | 58° |
| 2026-04-25 16:31 | 37.37017 | -121.93228 | 46 ft | 17 kts | 139° |
| 2026-04-25 16:31 | 37.36927 | -121.93132 | 47 ft | 16 kts | 139° |
| 2026-04-25 16:31 | 37.36842 | -121.93038 | 48 ft | 15 kts | 139° |
| 2026-04-25 16:31 | 37.36762 | -121.92950 | 50 ft | 14 kts | 139° |
| 2026-04-25 16:32 | 37.36684 | -121.92864 | 51 ft | 14 kts | 139° |
| 2026-04-25 16:32 | 37.36610 | -121.92784 | 52 ft | 13 kts | 139° |
| 2026-04-25 16:32 | 37.36537 | -121.92705 | 53 ft | 13 kts | 139° |
| 2026-04-25 16:32 | 37.36467 | -121.92628 | 54 ft | 12 kts | 139° |
| 2026-04-25 16:33 | 37.36400 | -121.92554 | 55 ft | 12 kts | 139° |
| 2026-04-25 16:33 | 37.36333 | -121.92481 | 56 ft | 12 kts | 139° |
| 2026-04-25 16:33 | 37.36267 | -121.92409 | 57 ft | 12 kts | 140° |
| 2026-04-25 16:33 | 37.36234 | -121.92336 | 57 ft | 0 kts | 58° |
| 2026-04-25 16:34 | 37.36248 | -121.92316 | 57 ft | 5 kts | 48° |
| 2026-04-25 16:34 | 37.36262 | -121.92297 | 56 ft | 0 kts | 48° |
| 2026-04-25 16:39 | 37.36257 | -121.92304 | 56 ft | 2 kts | 48° |
| 2026-04-25 16:39 | 37.36247 | -121.92319 | 57 ft | 2 kts | 49° |
| 2026-04-25 16:39 | 37.36240 | -121.92335 | 57 ft | 2 kts | 74° |
| 2026-04-25 16:40 | 37.36237 | -121.92353 | 57 ft | 2 kts | 92° |
| 2026-04-25 16:40 | 37.36240 | -121.92372 | 57 ft | 2 kts | 112° |
| 2026-04-25 16:40 | 37.36248 | -121.92388 | 57 ft | 2 kts | 131° |
| 2026-04-25 16:40 | 37.36253 | -121.92394 | 57 ft | 1 kts | 142° |
| 2026-04-25 16:41 | 37.36256 | -121.92397 | 57 ft | 0 kts | 139° |